Hlavní strana
METAR-TAF:

METAR-TAF

Letiště :

Pago Pago, Menší odlehlé ostrovy Spojených států amerických

zeměpisná šířka: 14-20S, zeměpisná délka: 170-43W, výška: 3 m

Aktuální stav počasí

Zpráva byla vytvořena před 32 minutami, v 23:50 UTC
Východní vítr 9 kt
Teplota 30°C
Vlhkost vzduchu 75%
Tlak 1011 hPa
Viditelnost: 19.3 km
Skoro jasno ve výšce 1400 ft, Cumulonimbus.
Oblačno až skoro zataženo ve výšce 12000 ft
Oblačno až skoro zataženo ve výšce 20000 ft

METAR: NSTU 172350Z 08009KT 12SM FEW014CB BKN120 BKN200 30/25 A2985 RMK CB DIST SW-W SLP110 8/378 T03010245 10312 20277 57010

Čas: 13:22 (00:22 UTC)

Předpověď počasí

Zpráva byla vytvořena před 1 hodinou a 2 minutami, v 23:20 UTC
Předpověď platná od 18 v 00 UTC do 18 v 24 UTC
Východní vítr 10 kt
Viditelnost: 10 km
Polojasno ve výšce 1700 ft
Polojasno ve výšce 4000 ft
Oblačno až skoro zataženo ve výšce 20000 ft
přeháňky v blízkosti

TAF: NSTU 172320Z 1800/1824 09010KT P6SM VCSH SCT017 SCT040 BKN200

Stav a předpovědi počasí z více než 4 000 letišť (zprávy METAR a TAF).

Červené a žluté tečky na mapě představují dostupné meteorologické stanice.

Když kurzor umístíte na tečku, zobrazí se název stanice.

Pak kliknutím zobrazíte stav a předpověď počasí.

Chcete-li změnit mapu, kliknutím na zelené tlačítko se znaménkem +mapu přiblížíte, kliknutím na zelené tlačítko se znaménkem – mapu oddálíte a kliknutím na zelené šipky přejdete na sousední mapy.


METAR-TAF: